PWSweather.com
Personal Weather Stations
Station Observations
KCAOCEAN4
Jeffries Ranch, Oceanside, CA 92057

Jeffries RanchOceanside, CA 92057

Lat: 33.2463208, Lon: -117.25335080000002

Elevation: 207

Station Type: Davis Vantage Vue

jeffriesranchweather.com

High Low Average
Temperature 58.8°F14.9°C 33.4°F0.8°C 44.0°F6.7°C
Dew Point 33.6°F0.9°C 15.8°F-9.0°C 23.8°F-4.6°C
Winds 8.9 mph 14.3 kmh Calm Calm 2.0 mph E3.2 kmh E
Wind Gusts 19.0 mph30.6 kmh -- 6.0 mph9.7 kmh
Humidity 88% 19% 50%
Pressure 30.15 in1021.0 mb 29.95 in1014.2 mb -
Precipitation 0.00 in0.0 mm - -
Hour Temp Dew Point Humidity Winds Wind Gusts Pressure Precip Precip Rate Daily Precip Total
12:08 AM 39.2°F4.0°C 35.6°F2.0°C 87% Calm Calm -- 29.93 in1013.5 mb 0.00 in0.0 mm 0.00 in0.0 mm 0.00 in0.0 mm
12:18 AM 38.8°F3.8°C 35.2°F1.8°C 87% Calm Calm 2.0 mph3.2 kmh 29.94 in1013.9 mb 0.00 in0.0 mm 0.00 in0.0 mm 0.00 in0.0 mm
12:28 AM 38.5°F3.6°C 35.2°F1.8°C 88% Calm Calm 0.9 mph1.4 kmh 29.94 in1013.9 mb 0.00 in0.0 mm 0.00 in0.0 mm 0.00 in0.0 mm
12:38 AM 38.1°F3.4°C 34.9°F1.6°C 88% Calm Calm 2.0 mph3.2 kmh 29.94 in1013.9 mb 0.00 in0.0 mm 0.00 in0.0 mm 0.00 in0.0 mm
12:48 AM 37.8°F3.2°C 34.5°F1.4°C 88% Calm Calm 2.0 mph3.2 kmh 29.95 in1014.2 mb 0.00 in0.0 mm 0.00 in0.0 mm 0.00 in0.0 mm
12:58 AM 37.4°F3.0°C 34.2°F1.2°C 88% Calm Calm 2.0 mph3.2 kmh 29.95 in1014.2 mb 0.00 in0.0 mm 0.00 in0.0 mm 0.00 in0.0 mm
01:08 AM 36.9°F2.7°C 33.6°F0.9°C 88% Calm Calm 2.0 mph3.2 kmh 29.95 in1014.2 mb 0.00 in0.0 mm 0.00 in0.0 mm 0.00 in0.0 mm
01:18 AM 36.7°F2.6°C 33.4°F0.8°C 88% Calm Calm 0.9 mph1.4 kmh 29.95 in1014.2 mb 0.00 in0.0 mm 0.00 in0.0 mm 0.00 in0.0 mm
01:28 AM 36.3°F2.4°C 32.9°F0.5°C 87% Calm Calm -- 29.95 in1014.2 mb 0.00 in0.0 mm 0.00 in0.0 mm 0.00 in0.0 mm
01:38 AM 36.0°F2.2°C 32.7°F0.4°C 88% Calm Calm 2.0 mph3.2 kmh 29.95 in1014.2 mb 0.00 in0.0 mm 0.00 in0.0 mm 0.00 in0.0 mm
01:48 AM 36.1°F2.3°C 32.9°F0.5°C 88% 2.9 mph NE4.7 kmh NE 7.0 mph11.3 kmh 29.95 in1014.2 mb 0.00 in0.0 mm 0.00 in0.0 mm 0.00 in0.0 mm
01:58 AM 36.3°F2.4°C 32.5°F0.3°C 86% 4.0 mph NE6.4 kmh NE 7.0 mph11.3 kmh 29.95 in1014.2 mb 0.00 in0.0 mm 0.00 in0.0 mm 0.00 in0.0 mm
02:08 AM 36.3°F2.4°C 32.5°F0.3°C 86% 2.0 mph E3.2 kmh E 4.0 mph6.4 kmh 29.96 in1014.6 mb 0.00 in0.0 mm 0.00 in0.0 mm 0.00 in0.0 mm
02:18 AM 36.0°F2.2°C 31.8°F-0.1°C 85% 2.0 mph ESE3.2 kmh ESE 6.9 mph11.1 kmh 29.96 in1014.6 mb 0.00 in0.0 mm 0.00 in0.0 mm 0.00 in0.0 mm
02:28 AM 35.4°F1.9°C 31.6°F-0.2°C 86% 0.9 mph NE1.4 kmh NE 4.0 mph6.4 kmh 29.96 in1014.6 mb 0.00 in0.0 mm 0.00 in0.0 mm 0.00 in0.0 mm
02:38 AM 35.2°F1.8°C 31.1°F-0.5°C 85% 2.9 mph ENE4.7 kmh ENE 6.0 mph9.7 kmh 29.96 in1014.6 mb 0.00 in0.0 mm 0.00 in0.0 mm 0.00 in0.0 mm
02:48 AM 35.4°F1.9°C 31.6°F-0.2°C 86% 2.9 mph ENE4.7 kmh ENE 6.9 mph11.1 kmh 29.96 in1014.6 mb 0.00 in0.0 mm 0.00 in0.0 mm 0.00 in0.0 mm
02:58 AM 35.4°F1.9°C 31.3°F-0.4°C 85% 2.9 mph NE4.7 kmh NE 6.9 mph11.1 kmh 29.96 in1014.6 mb 0.00 in0.0 mm 0.00 in0.0 mm 0.00 in0.0 mm
03:08 AM 35.6°F2.0°C 31.3°F-0.4°C 84% 2.9 mph E4.7 kmh E 6.9 mph11.1 kmh 29.96 in1014.6 mb 0.00 in0.0 mm 0.00 in0.0 mm 0.00 in0.0 mm
03:18 AM 35.1°F1.7°C 30.7°F-0.7°C 84% 0.9 mph NE1.4 kmh NE 4.0 mph6.4 kmh 29.97 in1014.9 mb 0.00 in0.0 mm 0.00 in0.0 mm 0.00 in0.0 mm
03:28 AM 35.2°F1.8°C 31.1°F-0.5°C 85% 2.9 mph NE4.7 kmh NE 8.1 mph13.0 kmh 29.97 in1014.9 mb 0.00 in0.0 mm 0.00 in0.0 mm 0.00 in0.0 mm
03:38 AM 35.6°F2.0°C 31.3°F-0.4°C 84% 2.9 mph E4.7 kmh E 6.9 mph11.1 kmh 29.97 in1014.9 mb 0.00 in0.0 mm 0.00 in0.0 mm 0.00 in0.0 mm
03:48 AM 35.1°F1.7°C 30.4°F-0.9°C 83% Calm Calm 2.9 mph4.7 kmh 29.97 in1014.9 mb 0.00 in0.0 mm 0.00 in0.0 mm 0.00 in0.0 mm
03:58 AM 34.3°F1.3°C 29.7°F-1.3°C 83% 0.9 mph E1.4 kmh E 2.0 mph3.2 kmh 29.97 in1014.9 mb 0.00 in0.0 mm 0.00 in0.0 mm 0.00 in0.0 mm
04:08 AM 34.2°F1.2°C 29.8°F-1.2°C 84% 0.9 mph ENE1.4 kmh ENE 4.9 mph7.9 kmh 29.97 in1014.9 mb 0.00 in0.0 mm 0.00 in0.0 mm 0.00 in0.0 mm
04:18 AM 34.0°F1.1°C 29.7°F-1.3°C 84% 2.9 mph NE4.7 kmh NE 6.9 mph11.1 kmh 29.98 in1015.2 mb 0.00 in0.0 mm 0.00 in0.0 mm 0.00 in0.0 mm
04:28 AM 33.6°F0.9°C 29.3°F-1.5°C 84% 2.9 mph ENE4.7 kmh ENE 6.9 mph11.1 kmh 29.98 in1015.2 mb 0.00 in0.0 mm 0.00 in0.0 mm 0.00 in0.0 mm
04:38 AM 34.3°F1.3°C 30.0°F-1.1°C 84% 2.9 mph E4.7 kmh E 7.0 mph11.3 kmh 29.98 in1015.2 mb 0.00 in0.0 mm 0.00 in0.0 mm 0.00 in0.0 mm
04:48 AM 34.2°F1.2°C 29.8°F-1.2°C 84% 2.9 mph E4.7 kmh E 10.1 mph16.3 kmh 29.98 in1015.2 mb 0.00 in0.0 mm 0.00 in0.0 mm 0.00 in0.0 mm
04:58 AM 34.5°F1.4°C 29.7°F-1.3°C 82% 2.9 mph E4.7 kmh E 6.9 mph11.1 kmh 29.98 in1015.2 mb 0.00 in0.0 mm 0.00 in0.0 mm 0.00 in0.0 mm
05:08 AM 34.2°F1.2°C 28.9°F-1.7°C 81% 0.9 mph ESE1.4 kmh ESE 4.9 mph7.9 kmh 29.99 in1015.6 mb 0.00 in0.0 mm 0.00 in0.0 mm 0.00 in0.0 mm
05:18 AM 36.1°F2.3°C 28.9°F-1.7°C 75% 2.0 mph E3.2 kmh E 4.9 mph7.9 kmh 29.99 in1015.6 mb 0.00 in0.0 mm 0.00 in0.0 mm 0.00 in0.0 mm
05:28 AM 38.5°F3.6°C 27.7°F-2.4°C 65% 2.0 mph ENE3.2 kmh ENE 4.9 mph7.9 kmh 29.99 in1015.6 mb 0.00 in0.0 mm 0.00 in0.0 mm 0.00 in0.0 mm
05:38 AM 38.3°F3.5°C 27.5°F-2.5°C 65% 0.9 mph E1.4 kmh E 2.9 mph4.7 kmh 30.00 in1015.9 mb 0.00 in0.0 mm 0.00 in0.0 mm 0.00 in0.0 mm
05:48 AM 37.0°F2.8°C 26.8°F-2.9°C 66% Calm Calm 2.9 mph4.7 kmh 30.00 in1015.9 mb 0.00 in0.0 mm 0.00 in0.0 mm 0.00 in0.0 mm
05:58 AM 35.1°F1.7°C 27.0°F-2.8°C 72% 2.0 mph ESE3.2 kmh ESE 5.0 mph8.0 kmh 30.00 in1015.9 mb 0.00 in0.0 mm 0.00 in0.0 mm 0.00 in0.0 mm
06:08 AM 34.2°F1.2°C 26.4°F-3.1°C 73% 0.9 mph NNE1.4 kmh NNE 4.0 mph6.4 kmh 30.01 in1016.3 mb 0.00 in0.0 mm 0.00 in0.0 mm 0.00 in0.0 mm
06:18 AM 33.6°F0.9°C 26.6°F-3.0°C 75% 0.9 mph ESE1.4 kmh ESE 2.0 mph3.2 kmh 30.01 in1016.3 mb 0.00 in0.0 mm 0.00 in0.0 mm 0.00 in0.0 mm
06:28 AM 36.1°F2.3°C 26.2°F-3.2°C 67% 2.0 mph ENE3.2 kmh ENE 5.0 mph8.0 kmh 30.01 in1016.3 mb 0.00 in0.0 mm 0.00 in0.0 mm 0.00 in0.0 mm
06:38 AM 36.0°F2.2°C 25.3°F-3.7°C 65% 0.9 mph ENE1.4 kmh ENE 4.0 mph6.4 kmh 30.03 in1016.9 mb 0.00 in0.0 mm 0.00 in0.0 mm 0.00 in0.0 mm
06:48 AM 34.2°F1.2°C 25.3°F-3.7°C 70% 0.9 mph E1.4 kmh E 2.9 mph4.7 kmh 30.03 in1016.9 mb 0.00 in0.0 mm 0.00 in0.0 mm 0.00 in0.0 mm
06:58 AM 34.0°F1.1°C 25.9°F-3.4°C 72% 0.9 mph E1.4 kmh E 2.9 mph4.7 kmh 30.03 in1016.9 mb 0.00 in0.0 mm 0.00 in0.0 mm 0.00 in0.0 mm
07:08 AM 34.5°F1.4°C 26.1°F-3.3°C 71% 2.0 mph ENE3.2 kmh ENE 4.9 mph7.9 kmh 30.04 in1017.3 mb 0.00 in0.0 mm 0.00 in0.0 mm 0.00 in0.0 mm
07:18 AM 34.5°F1.4°C 25.3°F-3.7°C 69% 0.9 mph ENE1.4 kmh ENE 6.0 mph9.7 kmh 30.05 in1017.6 mb 0.00 in0.0 mm 0.00 in0.0 mm 0.00 in0.0 mm
07:28 AM 35.8°F2.1°C 25.2°F-3.8°C 65% 2.9 mph ESE4.7 kmh ESE 4.9 mph7.9 kmh 30.06 in1017.9 mb 0.00 in0.0 mm 0.00 in0.0 mm 0.00 in0.0 mm
07:38 AM 40.3°F4.6°C 24.1°F-4.4°C 52% 4.0 mph E6.4 kmh E 13.0 mph20.9 kmh 30.06 in1017.9 mb 0.00 in0.0 mm 0.00 in0.0 mm 0.00 in0.0 mm
07:48 AM 40.8°F4.9°C 23.2°F-4.9°C 49% 2.9 mph E4.7 kmh E 6.0 mph9.7 kmh 30.07 in1018.3 mb 0.00 in0.0 mm 0.00 in0.0 mm 0.00 in0.0 mm
07:58 AM 40.8°F4.9°C 23.2°F-4.9°C 49% 2.0 mph ENE3.2 kmh ENE 4.0 mph6.4 kmh 30.08 in1018.6 mb 0.00 in0.0 mm 0.00 in0.0 mm 0.00 in0.0 mm
08:08 AM 40.8°F4.9°C 22.6°F-5.2°C 48% 2.0 mph ENE3.2 kmh ENE 4.9 mph7.9 kmh 30.09 in1019.0 mb 0.00 in0.0 mm 0.00 in0.0 mm 0.00 in0.0 mm
08:18 AM 38.1°F3.4°C 23.9°F-4.5°C 56% 2.0 mph ENE3.2 kmh ENE 4.0 mph6.4 kmh 30.09 in1019.0 mb 0.00 in0.0 mm 0.00 in0.0 mm 0.00 in0.0 mm
08:28 AM 36.1°F2.3°C 24.4°F-4.2°C 62% 2.0 mph ENE3.2 kmh ENE 2.9 mph4.7 kmh 30.10 in1019.3 mb 0.00 in0.0 mm 0.00 in0.0 mm 0.00 in0.0 mm
08:38 AM 37.0°F2.8°C 25.2°F-3.8°C 62% 2.0 mph ENE3.2 kmh ENE 4.0 mph6.4 kmh 30.11 in1019.6 mb 0.00 in0.0 mm 0.00 in0.0 mm 0.00 in0.0 mm
08:48 AM 40.3°F4.6°C 23.5°F-4.7°C 51% 2.0 mph E3.2 kmh E 5.0 mph8.0 kmh 30.11 in1019.6 mb 0.00 in0.0 mm 0.00 in0.0 mm 0.00 in0.0 mm
08:58 AM 43.2°F6.2°C 23.2°F-4.9°C 45% 2.9 mph E4.7 kmh E 8.9 mph14.3 kmh 30.11 in1019.6 mb 0.00 in0.0 mm 0.00 in0.0 mm 0.00 in0.0 mm
09:08 AM 43.3°F6.3°C 23.4°F-4.8°C 45% 2.9 mph E4.7 kmh E 6.9 mph11.1 kmh 30.12 in1020.0 mb 0.00 in0.0 mm 0.00 in0.0 mm 0.00 in0.0 mm
09:18 AM 44.8°F7.1°C 23.7°F-4.6°C 43% 2.0 mph ENE3.2 kmh ENE 8.1 mph13.0 kmh 30.12 in1020.0 mb 0.00 in0.0 mm 0.00 in0.0 mm 0.00 in0.0 mm
09:28 AM 46.2°F7.9°C 23.9°F-4.5°C 41% 2.0 mph NE3.2 kmh NE 6.0 mph9.7 kmh 30.13 in1020.3 mb 0.00 in0.0 mm 0.00 in0.0 mm 0.00 in0.0 mm
09:38 AM 46.9°F8.3°C 23.2°F-4.9°C 39% 2.0 mph SE3.2 kmh SE 6.0 mph9.7 kmh 30.13 in1020.3 mb 0.00 in0.0 mm 0.00 in0.0 mm 0.00 in0.0 mm
09:48 AM 47.7°F8.7°C 22.6°F-5.2°C 37% 2.9 mph E4.7 kmh E 6.9 mph11.1 kmh 30.14 in1020.7 mb 0.00 in0.0 mm 0.00 in0.0 mm 0.00 in0.0 mm
09:58 AM 48.4°F9.1°C 23.4°F-4.8°C 37% 2.0 mph ENE3.2 kmh ENE 6.9 mph11.1 kmh 30.14 in1020.7 mb 0.00 in0.0 mm 0.00 in0.0 mm 0.00 in0.0 mm
10:08 AM 48.9°F9.4°C 22.5°F-5.3°C 35% 2.9 mph NE4.7 kmh NE 7.0 mph11.3 kmh 30.14 in1020.7 mb 0.00 in0.0 mm 0.00 in0.0 mm 0.00 in0.0 mm
10:18 AM 49.3°F9.6°C 22.8°F-5.1°C 35% 2.0 mph ENE3.2 kmh ENE 6.0 mph9.7 kmh 30.14 in1020.7 mb 0.00 in0.0 mm 0.00 in0.0 mm 0.00 in0.0 mm
10:28 AM 49.8°F9.9°C 23.2°F-4.9°C 35% 2.0 mph NE3.2 kmh NE 6.9 mph11.1 kmh 30.14 in1020.7 mb 0.00 in0.0 mm 0.00 in0.0 mm 0.00 in0.0 mm
10:38 AM 50.5°F10.3°C 23.2°F-4.9°C 34% 2.9 mph NE4.7 kmh NE 9.0 mph14.5 kmh 30.14 in1020.7 mb 0.00 in0.0 mm 0.00 in0.0 mm 0.00 in0.0 mm
10:48 AM 51.3°F10.7°C 23.2°F-4.9°C 33% 2.0 mph NE3.2 kmh NE 6.9 mph11.1 kmh 30.14 in1020.7 mb 0.00 in0.0 mm 0.00 in0.0 mm 0.00 in0.0 mm
10:58 AM 52.5°F11.4°C 22.8°F-5.1°C 31% 2.9 mph NE4.7 kmh NE 7.0 mph11.3 kmh 30.14 in1020.7 mb 0.00 in0.0 mm 0.00 in0.0 mm 0.00 in0.0 mm
11:08 AM 53.1°F11.7°C 22.5°F-5.3°C 30% 4.9 mph NE7.9 kmh NE 12.1 mph19.5 kmh 30.13 in1020.3 mb 0.00 in0.0 mm 0.00 in0.0 mm 0.00 in0.0 mm
11:18 AM 53.8°F12.1°C 20.7°F-6.3°C 27% 4.9 mph NE7.9 kmh NE 14.1 mph22.7 kmh 30.13 in1020.3 mb 0.00 in0.0 mm 0.00 in0.0 mm 0.00 in0.0 mm
11:28 AM 53.8°F12.1°C 20.7°F-6.3°C 27% 6.9 mph NE11.1 kmh NE 14.1 mph22.7 kmh 30.12 in1020.0 mb 0.00 in0.0 mm 0.00 in0.0 mm 0.00 in0.0 mm
11:38 AM 54.0°F12.2°C 20.7°F-6.3°C 27% 6.9 mph NE11.1 kmh NE 13.0 mph20.9 kmh 30.11 in1019.6 mb 0.00 in0.0 mm 0.00 in0.0 mm 0.00 in0.0 mm
11:48 AM 54.1°F12.3°C 19.9°F-6.7°C 26% 6.0 mph N9.7 kmh N 12.1 mph19.5 kmh 30.11 in1019.6 mb 0.00 in0.0 mm 0.00 in0.0 mm 0.00 in0.0 mm
11:58 AM 54.7°F12.6°C 21.4°F-5.9°C 27% 6.0 mph E9.7 kmh E 12.0 mph19.3 kmh 30.11 in1019.6 mb 0.00 in0.0 mm 0.00 in0.0 mm 0.00 in0.0 mm
12:08 PM 54.9°F12.7°C 21.6°F-5.8°C 27% 4.9 mph ENE7.9 kmh ENE 10.1 mph16.3 kmh 30.10 in1019.3 mb 0.00 in0.0 mm 0.00 in0.0 mm 0.00 in0.0 mm
12:18 PM 55.6°F13.1°C 20.3°F-6.5°C 25% 6.0 mph NNE9.7 kmh NNE 16.1 mph25.9 kmh 30.09 in1019.0 mb 0.00 in0.0 mm 0.00 in0.0 mm 0.00 in0.0 mm
12:28 PM 55.8°F13.2°C 20.5°F-6.4°C 25% 8.1 mph NE13.0 kmh NE 17.9 mph28.8 kmh 30.09 in1019.0 mb 0.00 in0.0 mm 0.00 in0.0 mm 0.00 in0.0 mm
12:38 PM 55.9°F13.3°C 17.6°F-8.0°C 22% 8.1 mph NNE13.0 kmh NNE 17.9 mph28.8 kmh 30.08 in1018.6 mb 0.00 in0.0 mm 0.00 in0.0 mm 0.00 in0.0 mm
12:48 PM 55.9°F13.3°C 16.5°F-8.6°C 21% 8.1 mph NNE13.0 kmh NNE 19.0 mph30.6 kmh 30.08 in1018.6 mb 0.00 in0.0 mm 0.00 in0.0 mm 0.00 in0.0 mm
12:58 PM 56.1°F13.4°C 16.7°F-8.5°C 21% 8.1 mph NNW13.0 kmh NNW 19.0 mph30.6 kmh 30.08 in1018.6 mb 0.00 in0.0 mm 0.00 in0.0 mm 0.00 in0.0 mm
01:08 PM 56.5°F13.6°C 17.1°F-8.3°C 21% 8.9 mph NE14.3 kmh NE 17.0 mph27.4 kmh 30.07 in1018.3 mb 0.00 in0.0 mm 0.00 in0.0 mm 0.00 in0.0 mm
01:18 PM 56.5°F13.6°C 18.1°F-7.7°C 22% 8.1 mph N13.0 kmh N 17.9 mph28.8 kmh 30.07 in1018.3 mb 0.00 in0.0 mm 0.00 in0.0 mm 0.00 in0.0 mm
01:28 PM 56.5°F13.6°C 18.1°F-7.7°C 22% 8.1 mph NE13.0 kmh NE 15.0 mph24.1 kmh 30.06 in1017.9 mb 0.00 in0.0 mm 0.00 in0.0 mm 0.00 in0.0 mm
01:38 PM 56.7°F13.7°C 18.3°F-7.6°C 22% 6.9 mph NW11.1 kmh NW 18.0 mph29.0 kmh 30.06 in1017.9 mb 0.00 in0.0 mm 0.00 in0.0 mm 0.00 in0.0 mm
01:48 PM 56.8°F13.8°C 18.3°F-7.6°C 22% 8.1 mph NNW13.0 kmh NNW 16.1 mph25.9 kmh 30.06 in1017.9 mb 0.00 in0.0 mm 0.00 in0.0 mm 0.00 in0.0 mm
01:58 PM 56.8°F13.8°C 18.3°F-7.6°C 22% 6.9 mph NE11.1 kmh NE 13.0 mph20.9 kmh 30.05 in1017.6 mb 0.00 in0.0 mm 0.00 in0.0 mm 0.00 in0.0 mm
02:08 PM 57.4°F14.1°C 18.9°F-7.3°C 22% 6.0 mph NE9.7 kmh NE 15.0 mph24.1 kmh 30.05 in1017.6 mb 0.00 in0.0 mm 0.00 in0.0 mm 0.00 in0.0 mm
02:18 PM 57.6°F14.2°C 19.0°F-7.2°C 22% 4.9 mph NNW7.9 kmh NNW 13.0 mph20.9 kmh 30.05 in1017.6 mb 0.00 in0.0 mm 0.00 in0.0 mm 0.00 in0.0 mm
02:28 PM 57.7°F14.3°C 18.1°F-7.7°C 21% 6.0 mph N9.7 kmh N 12.1 mph19.5 kmh 30.05 in1017.6 mb 0.00 in0.0 mm 0.00 in0.0 mm 0.00 in0.0 mm
02:38 PM 57.9°F14.4°C 19.2°F-7.1°C 22% 6.0 mph NE9.7 kmh NE 13.0 mph20.9 kmh 30.05 in1017.6 mb 0.00 in0.0 mm 0.00 in0.0 mm 0.00 in0.0 mm
02:48 PM 57.6°F14.2°C 18.0°F-7.8°C 21% 6.9 mph NE11.1 kmh NE 14.1 mph22.7 kmh 30.05 in1017.6 mb 0.00 in0.0 mm 0.00 in0.0 mm 0.00 in0.0 mm
02:58 PM 57.7°F14.3°C 18.1°F-7.7°C 21% 6.0 mph N9.7 kmh N 12.1 mph19.5 kmh 30.05 in1017.6 mb 0.00 in0.0 mm 0.00 in0.0 mm 0.00 in0.0 mm
03:08 PM 57.9°F14.4°C 17.1°F-8.3°C 20% 4.0 mph NNE6.4 kmh NNE 12.1 mph19.5 kmh 30.05 in1017.6 mb 0.00 in0.0 mm 0.00 in0.0 mm 0.00 in0.0 mm
03:18 PM 57.7°F14.3°C 19.2°F-7.1°C 22% 6.0 mph NE9.7 kmh NE 12.1 mph19.5 kmh 30.05 in1017.6 mb 0.00 in0.0 mm 0.00 in0.0 mm 0.00 in0.0 mm
03:28 PM 57.9°F14.4°C 18.1°F-7.7°C 21% 4.9 mph N7.9 kmh N 8.9 mph14.3 kmh 30.05 in1017.6 mb 0.00 in0.0 mm 0.00 in0.0 mm 0.00 in0.0 mm
03:38 PM 58.5°F14.7°C 17.6°F-8.0°C 20% 4.0 mph NE6.4 kmh NE 11.0 mph17.7 kmh 30.06 in1017.9 mb 0.00 in0.0 mm 0.00 in0.0 mm 0.00 in0.0 mm
03:48 PM 58.3°F14.6°C 17.4°F-8.1°C 20% 4.9 mph NE7.9 kmh NE 8.9 mph14.3 kmh 30.06 in1017.9 mb 0.00 in0.0 mm 0.00 in0.0 mm 0.00 in0.0 mm
03:58 PM 57.9°F14.4°C 15.8°F-9.0°C 19% 4.0 mph SE6.4 kmh SE 8.9 mph14.3 kmh 30.07 in1018.3 mb 0.00 in0.0 mm 0.00 in0.0 mm 0.00 in0.0 mm
04:08 PM 58.3°F14.6°C 16.2°F-8.8°C 19% 2.0 mph E3.2 kmh E 6.0 mph9.7 kmh 30.07 in1018.3 mb 0.00 in0.0 mm 0.00 in0.0 mm 0.00 in0.0 mm
04:18 PM 58.5°F14.7°C 17.6°F-8.0°C 20% 2.0 mph NE3.2 kmh NE 6.0 mph9.7 kmh 30.07 in1018.3 mb 0.00 in0.0 mm 0.00 in0.0 mm 0.00 in0.0 mm
04:28 PM 58.5°F14.7°C 18.7°F-7.4°C 21% 2.0 mph SW3.2 kmh SW 6.0 mph9.7 kmh 30.07 in1018.3 mb 0.00 in0.0 mm 0.00 in0.0 mm 0.00 in0.0 mm
04:38 PM 58.6°F14.8°C 16.5°F-8.6°C 19% 0.9 mph NW1.4 kmh NW 4.0 mph6.4 kmh 30.07 in1018.3 mb 0.00 in0.0 mm 0.00 in0.0 mm 0.00 in0.0 mm
04:48 PM 58.8°F14.9°C 17.8°F-7.9°C 20% 0.9 mph N1.4 kmh N 2.9 mph4.7 kmh 30.07 in1018.3 mb 0.00 in0.0 mm 0.00 in0.0 mm 0.00 in0.0 mm
04:58 PM 58.3°F14.6°C 17.4°F-8.1°C 20% 0.9 mph E1.4 kmh E 4.0 mph6.4 kmh 30.07 in1018.3 mb 0.00 in0.0 mm 0.00 in0.0 mm 0.00 in0.0 mm
05:08 PM 57.6°F14.2°C 16.7°F-8.5°C 20% 2.0 mph ENE3.2 kmh ENE 5.0 mph8.0 kmh 30.07 in1018.3 mb 0.00 in0.0 mm 0.00 in0.0 mm 0.00 in0.0 mm
05:18 PM 57.4°F14.1°C 17.8°F-7.9°C 21% 0.9 mph ENE1.4 kmh ENE 2.9 mph4.7 kmh 30.07 in1018.3 mb 0.00 in0.0 mm 0.00 in0.0 mm 0.00 in0.0 mm
05:28 PM 57.4°F14.1°C 17.8°F-7.9°C 21% Calm Calm -- 30.07 in1018.3 mb 0.00 in0.0 mm 0.00 in0.0 mm 0.00 in0.0 mm
05:38 PM 57.0°F13.9°C 19.6°F-6.9°C 23% Calm Calm -- 30.08 in1018.6 mb 0.00 in0.0 mm 0.00 in0.0 mm 0.00 in0.0 mm
05:48 PM 54.5°F12.5°C 22.1°F-5.5°C 28% Calm Calm -- 30.08 in1018.6 mb 0.00 in0.0 mm 0.00 in0.0 mm 0.00 in0.0 mm
05:58 PM 52.0°F11.1°C 24.4°F-4.2°C 34% Calm Calm -- 30.09 in1019.0 mb 0.00 in0.0 mm 0.00 in0.0 mm 0.00 in0.0 mm
06:08 PM 50.2°F10.1°C 25.5°F-3.6°C 38% Calm Calm -- 30.09 in1019.0 mb 0.00 in0.0 mm 0.00 in0.0 mm 0.00 in0.0 mm
06:18 PM 48.9°F9.4°C 25.7°F-3.5°C 40% Calm Calm -- 30.09 in1019.0 mb 0.00 in0.0 mm 0.00 in0.0 mm 0.00 in0.0 mm
06:28 PM 47.5°F8.6°C 26.6°F-3.0°C 44% Calm Calm -- 30.10 in1019.3 mb 0.00 in0.0 mm 0.00 in0.0 mm 0.00 in0.0 mm
06:38 PM 46.2°F7.9°C 26.6°F-3.0°C 46% Calm Calm 1.0 mph1.6 kmh 30.10 in1019.3 mb 0.00 in0.0 mm 0.00 in0.0 mm 0.00 in0.0 mm
06:48 PM 45.5°F7.5°C 27.5°F-2.5°C 49% Calm Calm 1.0 mph1.6 kmh 30.10 in1019.3 mb 0.00 in0.0 mm 0.00 in0.0 mm 0.00 in0.0 mm
06:58 PM 45.9°F7.7°C 25.2°F-3.8°C 44% Calm Calm 2.0 mph3.2 kmh 30.10 in1019.3 mb 0.00 in0.0 mm 0.00 in0.0 mm 0.00 in0.0 mm
07:08 PM 45.7°F7.6°C 23.4°F-4.8°C 41% Calm Calm 3.0 mph4.8 kmh 30.11 in1019.6 mb 0.00 in0.0 mm 0.00 in0.0 mm 0.00 in0.0 mm
07:18 PM 46.0°F7.8°C 22.5°F-5.3°C 39% Calm Calm 2.9 mph4.7 kmh 30.11 in1019.6 mb 0.00 in0.0 mm 0.00 in0.0 mm 0.00 in0.0 mm
07:28 PM 46.0°F7.8°C 23.0°F-5.0°C 40% 0.9 mph SE1.4 kmh SE 4.0 mph6.4 kmh 30.11 in1019.6 mb 0.00 in0.0 mm 0.00 in0.0 mm 0.00 in0.0 mm
07:38 PM 44.8°F7.1°C 23.7°F-4.6°C 43% Calm Calm 0.9 mph1.4 kmh 30.11 in1019.6 mb 0.00 in0.0 mm 0.00 in0.0 mm 0.00 in0.0 mm
07:48 PM 43.5°F6.4°C 25.2°F-3.8°C 48% Calm Calm 0.9 mph1.4 kmh 30.11 in1019.6 mb 0.00 in0.0 mm 0.00 in0.0 mm 0.00 in0.0 mm
07:58 PM 41.7°F5.4°C 25.3°F-3.7°C 52% 0.9 mph SE1.4 kmh SE 2.0 mph3.2 kmh 30.11 in1019.6 mb 0.00 in0.0 mm 0.00 in0.0 mm 0.00 in0.0 mm
08:08 PM 41.0°F5.0°C 24.8°F-4.0°C 52% Calm Calm 2.0 mph3.2 kmh 30.11 in1019.6 mb 0.00 in0.0 mm 0.00 in0.0 mm 0.00 in0.0 mm
08:18 PM 40.8°F4.9°C 24.6°F-4.1°C 52% Calm Calm -- 30.12 in1020.0 mb 0.00 in0.0 mm 0.00 in0.0 mm 0.00 in0.0 mm
08:28 PM 40.3°F4.6°C 24.1°F-4.4°C 52% Calm Calm -- 30.12 in1020.0 mb 0.00 in0.0 mm 0.00 in0.0 mm 0.00 in0.0 mm
08:38 PM 39.2°F4.0°C 24.8°F-4.0°C 56% Calm Calm -- 30.12 in1020.0 mb 0.00 in0.0 mm 0.00 in0.0 mm 0.00 in0.0 mm
08:48 PM 38.8°F3.8°C 24.4°F-4.2°C 56% 0.9 mph SE1.4 kmh SE 2.9 mph4.7 kmh 30.12 in1020.0 mb 0.00 in0.0 mm 0.00 in0.0 mm 0.00 in0.0 mm
08:58 PM 38.5°F3.6°C 24.1°F-4.4°C 56% 0.9 mph W1.4 kmh W 2.9 mph4.7 kmh 30.12 in1020.0 mb 0.00 in0.0 mm 0.00 in0.0 mm 0.00 in0.0 mm
09:08 PM 38.3°F3.5°C 24.8°F-4.0°C 58% Calm Calm 0.9 mph1.4 kmh 30.13 in1020.3 mb 0.00 in0.0 mm 0.00 in0.0 mm 0.00 in0.0 mm
09:18 PM 37.8°F3.2°C 25.2°F-3.8°C 60% Calm Calm -- 30.13 in1020.3 mb 0.00 in0.0 mm 0.00 in0.0 mm 0.00 in0.0 mm
09:28 PM 36.9°F2.7°C 24.6°F-4.1°C 61% Calm Calm -- 30.13 in1020.3 mb 0.00 in0.0 mm 0.00 in0.0 mm 0.00 in0.0 mm
09:38 PM 36.0°F2.2°C 24.6°F-4.1°C 63% Calm Calm 0.9 mph1.4 kmh 30.14 in1020.7 mb 0.00 in0.0 mm 0.00 in0.0 mm 0.00 in0.0 mm
09:48 PM 36.0°F2.2°C 24.6°F-4.1°C 63% 0.9 mph SE1.4 kmh SE 3.0 mph4.8 kmh 30.14 in1020.7 mb 0.00 in0.0 mm 0.00 in0.0 mm 0.00 in0.0 mm
09:58 PM 35.4°F1.9°C 24.1°F-4.4°C 63% Calm Calm 2.0 mph3.2 kmh 30.14 in1020.7 mb 0.00 in0.0 mm 0.00 in0.0 mm 0.00 in0.0 mm
10:08 PM 35.6°F2.0°C 24.3°F-4.3°C 63% Calm Calm 2.0 mph3.2 kmh 30.14 in1020.7 mb 0.00 in0.0 mm 0.00 in0.0 mm 0.00 in0.0 mm
10:18 PM 35.2°F1.8°C 24.3°F-4.3°C 64% Calm Calm 2.0 mph3.2 kmh 30.15 in1021.0 mb 0.00 in0.0 mm 0.00 in0.0 mm 0.00 in0.0 mm
10:28 PM 34.9°F1.6°C 23.2°F-4.9°C 62% Calm Calm 3.0 mph4.8 kmh 30.15 in1021.0 mb 0.00 in0.0 mm 0.00 in0.0 mm 0.00 in0.0 mm
10:38 PM 34.5°F1.4°C 22.5°F-5.3°C 61% Calm Calm 2.0 mph3.2 kmh 30.15 in1021.0 mb 0.00 in0.0 mm 0.00 in0.0 mm 0.00 in0.0 mm
10:48 PM 34.5°F1.4°C 22.5°F-5.3°C 61% Calm Calm 2.0 mph3.2 kmh 30.15 in1021.0 mb 0.00 in0.0 mm 0.00 in0.0 mm 0.00 in0.0 mm
10:58 PM 34.0°F1.1°C 21.9°F-5.6°C 61% 0.9 mph E1.4 kmh E 2.9 mph4.7 kmh 30.15 in1021.0 mb 0.00 in0.0 mm 0.00 in0.0 mm 0.00 in0.0 mm
11:08 PM 33.4°F0.8°C 21.7°F-5.7°C 62% 0.9 mph ENE1.4 kmh ENE 4.0 mph6.4 kmh 30.15 in1021.0 mb 0.00 in0.0 mm 0.00 in0.0 mm 0.00 in0.0 mm
11:18 PM 34.2°F1.2°C 22.5°F-5.3°C 62% 2.9 mph ENE4.7 kmh ENE 6.9 mph11.1 kmh 30.15 in1021.0 mb 0.00 in0.0 mm 0.00 in0.0 mm 0.00 in0.0 mm
11:28 PM 34.5°F1.4°C 21.7°F-5.7°C 59% 2.9 mph NE4.7 kmh NE 6.0 mph9.7 kmh 30.15 in1021.0 mb 0.00 in0.0 mm 0.00 in0.0 mm 0.00 in0.0 mm
11:38 PM 34.3°F1.3°C 21.6°F-5.8°C 59% 4.0 mph NE6.4 kmh NE 8.1 mph13.0 kmh 30.14 in1020.7 mb 0.00 in0.0 mm 0.00 in0.0 mm 0.00 in0.0 mm
11:48 PM 35.1°F1.7°C 21.0°F-6.1°C 56% 2.9 mph NNE4.7 kmh NNE 6.0 mph9.7 kmh 30.14 in1020.7 mb 0.00 in0.0 mm 0.00 in0.0 mm 0.00 in0.0 mm
11:58 PM 35.1°F1.7°C 21.4°F-5.9°C 57% 2.9 mph NE4.7 kmh NE 7.0 mph11.3 kmh 30.15 in1021.0 mb 0.00 in0.0 mm 0.00 in0.0 mm 0.00 in0.0 mm